Time;durP1;ratioP1;P1;durP2;ratioP2;P2;SDS_P1;SDS_P2;PMS_P1;PMS_P2;Temp;Humidity;BMP_temperature;BMP_pressure;BME280_temperature;BME280_humidity;BME280_pressure;Samples;Min_cycle;Max_cycle;Signal;HPM_P1;HPM_P2
2021/07/04 00:00:12;;;;;;;30.20;18.33;;;17.80;99.90;;;;;;4959150;28;20190;-91
2021/07/04 00:02:38;;;;;;;28.58;17.20;;;17.80;99.90;;;;;;4974988;28;20261;-91
2021/07/04 00:05:06;;;;;;;34.28;18.83;;;17.80;99.90;;;;;;4976519;28;20623;-91
2021/07/04 00:07:31;;;;;;;33.55;17.77;;;17.80;99.90;;;;;;4958394;28;20187;-91
2021/07/04 00:09:57;;;;;;;35.63;18.02;;;;;;;;;;4959065;28;20244;-91
2021/07/04 00:12:23;;;;;;;30.00;18.30;;;17.80;99.90;;;;;;4975111;28;20187;-90
2021/07/04 00:14:49;;;;;;;31.17;18.50;;;17.80;99.90;;;;;;4975918;28;20683;-90
2021/07/04 00:17:14;;;;;;;29.33;17.92;;;17.80;99.90;;;;;;4958875;28;20552;-92
2021/07/04 00:19:42;;;;;;;31.83;19.55;;;17.80;99.90;;;;;;4974803;28;20186;-91
2021/07/04 00:22:08;;;;;;;27.45;18.20;;;17.80;99.90;;;;;;4959380;28;20178;-91
2021/07/04 00:24:34;;;;;;;30.58;17.83;;;17.80;99.90;;;;;;4958774;28;20191;-91
2021/07/04 00:27:00;;;;;;;39.45;18.65;;;17.80;99.90;;;;;;4959004;28;20211;-92
2021/07/04 00:29:26;;;;;;;31.90;18.17;;;;;;;;;;4974959;28;20637;-91
2021/07/04 00:31:52;;;;;;;29.75;17.23;;;17.80;99.90;;;;;;4974263;28;20189;-90
2021/07/04 00:34:18;;;;;;;25.08;17.13;;;17.80;99.90;;;;;;4958365;28;20175;-92
2021/07/04 00:36:43;;;;;;;25.75;17.70;;;17.80;99.90;;;;;;4958216;28;20325;-91
2021/07/04 00:39:09;;;;;;;31.40;17.17;;;17.80;99.90;;;;;;4974569;28;20269;-91
2021/07/04 00:41:35;;;;;;;43.33;16.75;;;;;;;;;;4975173;28;20183;-91
2021/07/04 00:44:01;;;;;;;30.42;17.67;;;17.80;99.90;;;;;;4975784;28;20285;-91
2021/07/04 00:46:30;;;;;;;38.47;18.65;;;17.80;99.90;;;;;;4974379;28;20179;-91
2021/07/04 00:48:56;;;;;;;29.70;16.80;;;17.80;99.90;;;;;;4973827;28;20213;-91
2021/07/04 00:51:22;;;;;;;28.65;16.77;;;17.70;99.90;;;;;;4973934;28;20178;-90
2021/07/04 00:53:48;;;;;;;29.63;17.13;;;17.70;99.90;;;;;;4973833;28;20190;-91
2021/07/04 00:56:14;;;;;;;38.55;18.23;;;;;;;;;;4974142;28;20202;-90
2021/07/04 00:58:41;;;;;;;27.23;17.73;;;17.80;99.90;;;;;;4973812;28;20648;-91
2021/07/04 01:01:06;;;;;;;31.35;16.58;;;17.70;99.90;;;;;;4973877;28;20174;-90
2021/07/04 01:03:32;;;;;;;32.83;17.10;;;17.70;99.90;;;;;;4973344;28;20205;-90
2021/07/04 01:05:58;;;;;;;26.73;15.43;;;17.70;99.90;;;;;;4957630;28;20593;-90
2021/07/04 01:08:24;;;;;;;31.13;17.50;;;17.70;99.90;;;;;;4957946;28;20526;-90
2021/07/04 01:10:50;;;;;;;32.35;17.13;;;17.70;99.90;;;;;;4973539;28;20190;-90
2021/07/04 01:13:16;;;;;;;35.80;16.30;;;17.80;99.90;;;;;;4974189;28;20187;-91
2021/07/04 01:15:43;;;;;;;25.00;15.77;;;17.70;99.90;;;;;;4973541;28;20257;-90
2021/07/04 01:18:09;;;;;;;28.88;16.80;;;17.70;99.90;;;;;;4973448;28;20195;-90
2021/07/04 01:20:37;;;;;;;28.80;17.15;;;17.70;99.90;;;;;;4973644;28;20624;-89
2021/07/04 01:23:08;;;;;;;29.55;16.50;;;17.70;99.90;;;;;;4974158;28;20175;-89
2021/07/04 01:25:40;;;;;;;28.17;14.80;;;17.70;99.90;;;;;;4975073;28;20174;-91
2021/07/04 01:28:06;;;;;;;28.70;16.77;;;17.70;99.90;;;;;;4975071;28;20647;-91
2021/07/04 01:30:33;;;;;;;28.25;15.88;;;17.60;99.90;;;;;;4973693;28;20578;-90
2021/07/04 01:32:58;;;;;;;32.20;16.77;;;17.60;99.90;;;;;;4957424;28;20277;-90
2021/07/04 01:35:24;;;;;;;32.50;15.43;;;17.60;99.90;;;;;;4973301;28;20322;-90
2021/07/04 01:37:50;;;;;;;29.83;16.50;;;17.60;99.90;;;;;;4957509;28;20803;-90
2021/07/04 01:40:16;;;;;;;25.17;16.15;;;17.60;99.90;;;;;;4957701;28;20183;-90
2021/07/04 01:42:45;;;;;;;31.02;16.60;;;17.60;99.90;;;;;;4974482;28;20209;-90
2021/07/04 01:45:13;;;;;;;24.80;16.70;;;17.60;99.90;;;;;;4974870;28;20269;-89
2021/07/04 01:47:40;;;;;;;28.10;16.58;;;17.60;99.90;;;;;;4974077;28;20185;-89
2021/07/04 01:50:10;;;;;;;23.52;16.60;;;17.60;99.90;;;;;;4974377;28;20174;-90
2021/07/04 01:52:36;;;;;;;25.63;16.42;;;17.60;99.90;;;;;;4973540;28;20182;-90
2021/07/04 01:55:05;;;;;;;32.30;15.38;;;17.60;99.90;;;;;;4973179;28;20202;-90
2021/07/04 01:57:31;;;;;;;28.85;16.60;;;17.60;99.90;;;;;;4974637;28;20178;-90
2021/07/04 02:00:01;;;;;;;29.45;16.65;;;17.60;99.90;;;;;;4974185;28;20183;-90
2021/07/04 02:02:26;;;;;;;29.20;16.13;;;17.60;99.90;;;;;;4973417;28;20241;-90
2021/07/04 02:04:52;;;;;;;35.42;16.50;;;17.60;99.90;;;;;;4957188;28;20186;-90
2021/07/04 02:07:19;;;;;;;30.10;17.02;;;17.60;99.90;;;;;;4957384;28;20186;-90
2021/07/04 02:09:50;;;;;;;30.38;16.73;;;17.60;99.90;;;;;;4973228;28;20759;-90
2021/07/04 02:12:18;;;;;;;36.53;15.95;;;17.60;99.90;;;;;;4973554;28;20269;-90
2021/07/04 02:14:44;;;;;;;27.13;15.90;;;17.60;99.90;;;;;;4960923;28;20236;-90
2021/07/04 02:17:11;;;;;;;34.17;17.83;;;17.60;99.90;;;;;;4978614;28;20174;-90
2021/07/04 02:19:38;;;;;;;29.77;18.33;;;17.60;99.90;;;;;;4945525;28;20186;-90
2021/07/04 02:22:06;;;;;;;42.08;17.48;;;17.60;99.90;;;;;;4978331;28;20670;-90
2021/07/04 02:24:32;;;;;;;35.17;17.35;;;17.60;99.90;;;;;;4977545;28;20266;-90
2021/07/04 02:26:59;;;;;;;27.33;18.13;;;17.60;99.90;;;;;;4978455;28;20229;-90
2021/07/04 02:29:25;;;;;;;29.40;17.38;;;17.60;99.90;;;;;;4977446;28;20182;-90
2021/07/04 02:31:50;;;;;;;28.65;17.23;;;17.60;99.90;;;;;;4961706;28;20213;-90
2021/07/04 02:34:16;;;;;;;29.48;17.20;;;17.60;99.90;;;;;;4979676;28;20179;-90
2021/07/04 02:36:43;;;;;;;37.17;21.17;;;17.60;99.90;;;;;;4989213;28;20226;-90
2021/07/04 02:39:09;;;;;;;35.13;17.70;;;17.60;99.90;;;;;;4997600;28;20246;-89
2021/07/04 02:41:35;;;;;;;35.70;20.48;;;17.60;99.90;;;;;;4997021;28;20229;-90
2021/07/04 02:44:01;;;;;;;30.15;19.25;;;17.60;99.90;;;;;;4994929;28;20216;-89
2021/07/04 02:46:28;;;;;;;30.60;16.50;;;17.60;99.90;;;;;;4986086;28;20175;-90
2021/07/04 02:48:53;;;;;;;32.97;17.85;;;17.70;99.90;;;;;;4976121;28;20187;-90
2021/07/04 02:51:19;;;;;;;30.67;17.35;;;17.60;99.90;;;;;;4977218;28;20178;-90
2021/07/04 02:53:45;;;;;;;33.08;18.38;;;17.60;99.90;;;;;;4976246;28;20183;-88
2021/07/04 02:56:10;;;;;;;35.42;18.50;;;17.70;99.90;;;;;;4976843;28;20222;-90
2021/07/04 02:58:36;;;;;;;30.67;17.38;;;17.60;99.90;;;;;;4945209;28;20178;-90
2021/07/04 03:01:03;;;;;;;28.63;17.27;;;17.60;99.90;;;;;;4977886;28;20179;-89
2021/07/04 03:03:29;;;;;;;31.95;20.20;;;17.60;99.90;;;;;;4976386;28;20655;-89
2021/07/04 03:05:55;;;;;;;30.83;17.73;;;17.60;99.90;;;;;;4976428;28;20182;-89
2021/07/04 03:08:21;;;;;;;35.15;18.27;;;17.60;99.90;;;;;;4960357;28;20260;-89
2021/07/04 03:10:48;;;;;;;31.00;17.77;;;17.60;99.90;;;;;;4976337;28;20616;-88
2021/07/04 03:13:14;;;;;;;30.80;16.95;;;17.60;99.90;;;;;;4976690;28;20206;-88
2021/07/04 03:15:40;;;;;;;27.70;18.02;;;17.60;99.90;;;;;;4976750;28;20668;-88
2021/07/04 03:18:06;;;;;;;33.45;18.35;;;17.60;99.90;;;;;;4977364;28;20254;-89
2021/07/04 03:20:32;;;;;;;29.80;18.30;;;17.60;99.90;;;;;;4977478;28;20183;-89
2021/07/04 03:22:58;;;;;;;31.05;18.58;;;17.70;99.90;;;;;;4975951;28;20299;-89
2021/07/04 03:25:23;;;;;;;29.55;18.17;;;17.70;99.90;;;;;;4976437;28;20261;-88
2021/07/04 03:27:49;;;;;;;34.17;19.33;;;17.70;99.90;;;;;;4975791;28;20179;-87
2021/07/04 03:30:18;;;;;;;32.05;17.08;;;17.60;99.90;;;;;;4976912;28;20185;-89
2021/07/04 03:32:44;;;;;;;26.42;18.65;;;17.60;99.90;;;;;;4975858;28;20182;-88
2021/07/04 03:35:11;;;;;;;29.92;14.75;;;17.70;99.90;;;;;;4975777;28;20261;-89
2021/07/04 03:37:38;;;;;;;26.55;15.40;;;17.70;99.90;;;;;;4959685;28;20684;-88
2021/07/04 03:40:06;;;;;;;23.55;16.50;;;17.60;99.90;;;;;;4977034;28;20170;-89
2021/07/04 03:42:32;;;;;;;20.75;13.77;;;17.60;99.90;;;;;;4975813;28;20711;-87
2021/07/04 03:44:58;;;;;;;19.75;14.20;;;17.60;99.90;;;;;;4976648;28;20287;-86
2021/07/04 03:47:25;;;;;;;29.75;15.05;;;17.60;99.90;;;;;;4959668;28;20186;-87
2021/07/04 03:49:52;;;;;;;20.25;14.65;;;17.60;99.90;;;;;;4976784;28;20521;-86
2021/07/04 03:52:18;;;;;;;28.23;13.52;;;17.70;99.90;;;;;;4975847;28;20639;-87
2021/07/04 03:54:44;;;;;;;18.85;13.02;;;17.70;99.90;;;;;;4976567;28;20210;-87
2021/07/04 03:57:21;;;;;;;23.80;14.63;;;17.70;99.90;;;;;;4976505;28;20179;-87
2021/07/04 03:59:52;;;;;;;21.25;13.10;;;17.60;99.90;;;;;;4975649;28;20171;-87
2021/07/04 04:02:18;;;;;;;28.08;14.15;;;17.70;99.90;;;;;;4975336;28;20176;-87
2021/07/04 04:04:44;;;;;;;21.45;12.80;;;17.70;99.90;;;;;;4975469;28;20179;-87
2021/07/04 04:07:10;;;;;;;28.73;14.07;;;17.70;99.90;;;;;;4976228;28;20253;-86
2021/07/04 04:09:35;;;;;;;18.88;12.52;;;17.70;99.90;;;;;;4974844;28;20182;-86
2021/07/04 04:12:01;;;;;;;20.40;13.27;;;17.70;99.90;;;;;;4974892;28;20186;-87
2021/07/04 04:14:27;;;;;;;22.05;12.20;;;;;;;;;;4976041;28;20648;-87
2021/07/04 04:16:53;;;;;;;22.75;12.23;;;17.70;99.90;;;;;;4958721;28;20187;-86
2021/07/04 04:19:18;;;;;;;26.02;13.32;;;17.70;99.90;;;;;;4958954;28;20229;-86
2021/07/04 04:21:44;;;;;;;16.05;10.98;;;17.70;99.90;;;;;;4975911;28;20179;-87
2021/07/04 04:24:10;;;;;;;22.73;12.95;;;17.70;99.90;;;;;;4974448;28;20628;-86
2021/07/04 04:26:36;;;;;;;23.02;11.65;;;17.80;99.90;;;;;;4974970;28;20182;-86
2021/07/04 04:29:01;;;;;;;21.98;11.43;;;17.80;99.90;;;;;;4974925;28;20179;-87
2021/07/04 04:31:27;;;;;;;20.23;11.15;;;17.80;99.90;;;;;;4975634;28;20614;-87
2021/07/04 04:33:53;;;;;;;20.02;11.18;;;17.80;99.90;;;;;;4975693;28;20573;-87
2021/07/04 04:36:19;;;;;;;21.30;11.52;;;17.80;99.90;;;;;;4974740;28;20238;-87
2021/07/04 04:38:44;;;;;;;23.55;10.38;;;17.80;99.90;;;;;;4975498;28;20553;-87
2021/07/04 04:41:11;;;;;;;18.27;9.77;;;;;;;;;;4958259;28;20661;-87
2021/07/04 04:43:37;;;;;;;17.15;9.90;;;17.80;99.90;;;;;;4974407;28;20174;-87
2021/07/04 04:46:02;;;;;;;16.90;9.15;;;17.80;99.90;;;;;;4975531;28;20224;-87
2021/07/04 04:48:28;;;;;;;16.60;8.82;;;18.00;99.90;;;;;;4974312;28;20230;-87
2021/07/04 04:50:54;;;;;;;13.50;7.80;;;;;;;;;;4974244;28;20237;-87
2021/07/04 04:53:19;;;;;;;15.23;9.52;;;17.90;99.90;;;;;;4973738;28;20185;-87
2021/07/04 04:55:45;;;;;;;9.73;7.10;;;17.90;99.90;;;;;;4974063;28;20222;-88
2021/07/04 04:58:11;;;;;;;11.00;7.40;;;17.90;99.90;;;;;;4974379;28;20187;-87
2021/07/04 05:00:37;;;;;;;11.00;7.93;;;18.00;99.90;;;;;;4973963;28;20683;-88
2021/07/04 05:03:06;;;;;;;13.13;7.70;;;18.00;99.90;;;;;;4973816;28;20200;-87
2021/07/04 05:05:33;;;;;;;14.70;8.07;;;18.00;99.90;;;;;;4957611;28;20241;-86
2021/07/04 05:07:59;;;;;;;13.80;8.02;;;18.10;99.90;;;;;;4973711;28;20274;-86
2021/07/04 05:10:25;;;;;;;13.93;7.95;;;;;;;;;;4973214;28;20266;-87
2021/07/04 05:12:50;;;;;;;15.07;8.45;;;18.20;99.90;;;;;;4974417;28;20182;-87
2021/07/04 05:15:16;;;;;;;13.13;7.15;;;18.20;99.90;;;;;;4956454;28;20681;-87
2021/07/04 05:17:42;;;;;;;14.00;7.75;;;18.30;99.90;;;;;;4974415;28;20424;-88
2021/07/04 05:20:08;;;;;;;11.20;6.90;;;18.30;99.90;;;;;;4970391;28;20242;-88
2021/07/04 05:22:35;;;;;;;14.20;7.65;;;18.30;99.90;;;;;;4972804;28;20175;-89
2021/07/04 05:25:02;;;;;;;12.55;7.45;;;18.30;99.90;;;;;;4972781;28;20224;-87
2021/07/04 05:27:27;;;;;;;11.82;7.68;;;18.30;99.90;;;;;;4974614;28;20200;-90
2021/07/04 05:29:53;;;;;;;10.00;6.68;;;18.30;99.90;;;;;;4956678;28;20197;-92
2021/07/04 05:32:20;;;;;;;11.32;6.90;;;18.30;99.90;;;;;;4956278;28;20190;-90
2021/07/04 05:34:46;;;;;;;9.10;7.60;;;18.30;99.90;;;;;;4974322;28;20214;-90
2021/07/04 05:37:12;;;;;;;10.60;8.18;;;18.40;99.90;;;;;;4976852;28;20254;-90
2021/07/04 05:39:38;;;;;;;11.45;8.60;;;18.50;99.90;;;;;;4972481;28;20650;-89
2021/07/04 05:42:04;;;;;;;12.00;8.15;;;18.50;99.90;;;;;;4973328;28;20179;-90
2021/07/04 05:44:30;;;;;;;11.45;8.30;;;18.50;99.90;;;;;;4974022;28;20189;-88
2021/07/04 05:46:56;;;;;;;13.02;8.50;;;18.60;99.90;;;;;;4972160;28;20185;-91
2021/07/04 05:49:22;;;;;;;10.13;8.13;;;18.60;99.90;;;;;;4972681;28;20567;-90
2021/07/04 05:51:48;;;;;;;14.35;8.18;;;18.70;99.90;;;;;;4956642;28;20541;-89
2021/07/04 05:54:15;;;;;;;12.10;8.30;;;18.70;99.90;;;;;;4973787;28;20257;-90
2021/07/04 05:56:41;;;;;;;9.77;7.93;;;18.70;99.90;;;;;;4972827;28;20217;-88
2021/07/04 05:59:06;;;;;;;9.63;7.63;;;18.70;99.90;;;;;;4971920;28;20266;-90
2021/07/04 06:01:32;;;;;;;13.05;7.90;;;18.70;99.90;;;;;;4973999;28;20612;-91
2021/07/04 06:03:58;;;;;;;12.63;7.93;;;18.80;99.90;;;;;;4973688;28;20221;-87
2021/07/04 06:06:24;;;;;;;13.80;7.70;;;18.90;99.90;;;;;;4972035;28;20749;-86
2021/07/04 06:08:50;;;;;;;18.88;7.90;;;18.90;99.90;;;;;;4972261;28;20174;-86
2021/07/04 06:11:15;;;;;;;12.32;6.60;;;19.00;99.90;;;;;;4971789;28;20233;-87
2021/07/04 06:13:41;;;;;;;7.90;6.55;;;19.10;99.90;;;;;;4973908;28;20181;-86
2021/07/04 06:16:07;;;;;;;13.88;7.35;;;19.20;99.90;;;;;;4956212;28;20210;-84
2021/07/04 06:18:33;;;;;;;11.32;7.30;;;19.30;99.90;;;;;;4973771;28;20628;-85
2021/07/04 06:20:58;;;;;;;8.80;6.82;;;19.20;99.90;;;;;;4973574;28;20186;-85
2021/07/04 06:23:24;;;;;;;9.70;7.65;;;19.30;99.90;;;;;;4972354;28;20182;-85
2021/07/04 06:25:50;;;;;;;9.88;7.50;;;19.30;99.90;;;;;;4974031;28;20640;-88
2021/07/04 06:28:15;;;;;;;8.48;6.28;;;19.30;99.90;;;;;;4972660;28;20182;-87
2021/07/04 06:30:41;;;;;;;8.60;6.93;;;19.40;99.90;;;;;;4972614;28;20219;-86
2021/07/04 06:33:07;;;;;;;7.80;6.85;;;19.40;99.90;;;;;;4973009;28;20209;-88
2021/07/04 06:35:32;;;;;;;8.93;7.18;;;19.50;99.90;;;;;;4973265;28;20258;-86
2021/07/04 06:37:58;;;;;;;10.43;7.43;;;19.50;99.90;;;;;;4956148;28;20230;-85
2021/07/04 06:40:24;;;;;;;8.63;6.10;;;19.50;99.90;;;;;;4972691;28;20266;-88
2021/07/04 06:42:50;;;;;;;13.95;6.97;;;19.50;99.90;;;;;;4972486;28;20191;-86
2021/07/04 06:45:16;;;;;;;12.23;6.88;;;19.50;99.90;;;;;;4972593;28;20183;-87
2021/07/04 06:47:44;;;;;;;11.02;7.18;;;19.50;99.90;;;;;;4971642;28;20533;-87
2021/07/04 06:50:12;;;;;;;10.57;7.13;;;19.50;99.90;;;;;;4971118;28;20695;-85
2021/07/04 06:52:38;;;;;;;8.88;7.20;;;19.50;99.90;;;;;;4972931;28;20190;-85
2021/07/04 06:55:07;;;;;;;7.97;7.18;;;19.50;99.90;;;;;;4972596;28;20202;-85
2021/07/04 06:57:33;;;;;;;8.93;7.43;;;19.40;99.90;;;;;;4972547;28;20183;-85
2021/07/04 07:00:01;;;;;;;11.98;7.50;;;19.40;99.90;;;;;;4974900;28;20175;-85
2021/07/04 07:02:27;;;;;;;8.30;7.03;;;19.40;99.90;;;;;;4975905;28;20193;-85
2021/07/04 07:04:53;;;;;;;13.35;8.15;;;19.40;99.90;;;;;;4977552;28;20182;-85
2021/07/04 07:07:20;;;;;;;11.73;9.02;;;19.30;99.90;;;;;;4977239;28;20171;-85
2021/07/04 07:09:46;;;;;;;12.73;8.30;;;19.30;99.90;;;;;;4977277;28;20209;-85
2021/07/04 07:12:12;;;;;;;11.63;8.40;;;19.30;99.90;;;;;;4976075;28;20185;-85
2021/07/04 07:14:38;;;;;;;12.55;8.40;;;19.30;99.90;;;;;;4975984;28;20591;-86
2021/07/04 07:17:04;;;;;;;10.90;8.23;;;19.20;99.90;;;;;;4976157;28;20237;-85
2021/07/04 07:19:30;;;;;;;11.63;8.77;;;19.20;99.90;;;;;;4975724;28;20189;-86
2021/07/04 07:21:55;;;;;;;9.27;7.72;;;19.20;99.90;;;;;;4977413;28;20261;-86
2021/07/04 07:24:22;;;;;;;13.10;8.75;;;19.20;99.90;;;;;;4976924;28;20209;-85
2021/07/04 07:26:48;;;;;;;14.52;9.52;;;19.10;99.90;;;;;;4976946;28;20174;-85
2021/07/04 07:29:13;;;;;;;13.48;9.23;;;19.10;99.90;;;;;;4977143;28;20186;-86
2021/07/04 07:31:39;;;;;;;16.90;10.77;;;19.00;99.90;;;;;;4977185;28;20316;-85
2021/07/04 07:34:05;;;;;;;13.32;10.65;;;19.00;99.90;;;;;;4975911;28;20186;-85
2021/07/04 07:36:31;;;;;;;17.15;11.57;;;18.90;99.90;;;;;;4959193;28;20246;-85
2021/07/04 07:38:57;;;;;;;20.13;12.77;;;19.00;99.90;;;;;;4976918;28;20179;-85
2021/07/04 07:41:23;;;;;;;21.45;12.48;;;18.90;99.90;;;;;;4975507;28;20702;-84
2021/07/04 07:43:50;;;;;;;20.83;13.57;;;18.90;99.90;;;;;;4975478;28;20230;-83
2021/07/04 07:46:16;;;;;;;17.95;14.18;;;19.00;99.90;;;;;;4959568;28;20273;-84
2021/07/04 07:48:43;;;;;;;19.42;13.55;;;18.90;99.90;;;;;;4975907;28;20178;-84
2021/07/04 07:51:09;;;;;;;16.52;12.85;;;18.90;99.90;;;;;;4976701;28;20273;-84
2021/07/04 07:53:35;;;;;;;17.13;13.73;;;18.80;99.90;;;;;;4976476;28;20742;-84
2021/07/04 07:56:00;;;;;;;20.08;14.55;;;18.90;99.90;;;;;;4976991;28;20206;-83
2021/07/04 07:58:26;;;;;;;18.17;12.93;;;18.90;99.90;;;;;;4978617;28;20179;-85
2021/07/04 08:00:52;;;;;;;20.15;11.85;;;18.90;99.90;;;;;;4976285;28;20237;-83
2021/07/04 08:03:18;;;;;;;19.38;14.43;;;18.80;99.90;;;;;;4976223;28;20182;-85
2021/07/04 08:05:44;;;;;;;19.30;14.73;;;18.80;99.90;;;;;;4975150;28;20561;-85
2021/07/04 08:08:09;;;;;;;18.58;12.07;;;18.80;99.90;;;;;;4976001;28;20214;-85
2021/07/04 08:10:35;;;;;;;15.60;12.68;;;18.90;99.90;;;;;;4975437;28;20178;-86
2021/07/04 08:13:02;;;;;;;18.95;12.95;;;18.90;99.90;;;;;;4975079;28;20184;-84
2021/07/04 08:15:28;;;;;;;21.17;16.02;;;18.90;99.90;;;;;;4975579;28;20656;-81
2021/07/04 08:17:54;;;;;;;18.13;12.88;;;19.00;99.90;;;;;;4975887;28;20221;-84
2021/07/04 08:20:20;;;;;;;19.83;14.32;;;19.00;99.90;;;;;;4958617;28;20241;-85
2021/07/04 08:22:46;;;;;;;15.85;12.13;;;19.00;99.90;;;;;;4974942;28;20182;-85
2021/07/04 08:25:13;;;;;;;19.75;12.95;;;19.00;99.90;;;;;;4975888;28;20182;-85
2021/07/04 08:27:39;;;;;;;19.77;12.38;;;19.00;99.90;;;;;;4974414;28;20182;-85
2021/07/04 08:30:06;;;;;;;19.25;12.68;;;19.00;99.90;;;;;;4958362;28;20198;-86
2021/07/04 08:32:32;;;;;;;19.25;13.80;;;19.00;99.90;;;;;;4974070;28;20178;-85
2021/07/04 08:34:58;;;;;;;17.83;13.98;;;19.10;99.90;;;;;;4974461;28;20659;-86
2021/07/04 08:37:24;;;;;;;20.95;14.23;;;19.10;99.90;;;;;;4973989;28;20230;-86
2021/07/04 08:39:49;;;;;;;17.80;14.38;;;19.10;99.90;;;;;;4974717;28;20179;-86
2021/07/04 08:42:18;;;;;;;19.92;15.82;;;19.10;99.90;;;;;;4974361;28;20182;-86
2021/07/04 08:44:51;;;;;;;21.60;15.15;;;19.20;99.90;;;;;;4975535;28;20182;-86
2021/07/04 08:47:19;;;;;;;22.85;15.30;;;19.20;99.90;;;;;;4975941;28;20167;-86
2021/07/04 08:49:46;;;;;;;19.48;15.07;;;19.20;99.90;;;;;;4974858;28;20245;-86
2021/07/04 08:52:12;;;;;;;22.33;15.10;;;19.30;99.90;;;;;;4973874;28;20194;-86
2021/07/04 08:54:38;;;;;;;18.33;13.80;;;19.20;99.90;;;;;;4957532;28;20185;-84
2021/07/04 08:57:08;;;;;;;19.52;14.95;;;19.30;99.90;;;;;;4975087;28;20291;-86
2021/07/04 08:59:42;;;;;;;18.95;12.88;;;19.30;99.90;;;;;;4973883;28;20193;-85
2021/07/04 09:02:11;;;;;;;16.25;11.65;;;19.30;99.90;;;;;;4974030;28;20170;-86
2021/07/04 09:05:01;;;;;;;15.57;10.88;;;19.40;99.90;;;;;;4973830;28;20632;-86
2021/07/04 09:07:31;;;;;;;12.23;8.98;;;19.40;99.90;;;;;;4973650;28;20181;-86
2021/07/04 09:09:59;;;;;;;13.90;9.18;;;19.40;99.90;;;;;;4974070;28;20193;-85
2021/07/04 09:12:41;;;;;;;11.18;9.00;;;19.50;99.90;;;;;;4973535;28;20190;-86
2021/07/04 09:15:13;;;;;;;11.68;9.32;;;19.50;99.90;;;;;;4974851;28;20287;-85
2021/07/04 09:17:41;;;;;;;13.20;9.80;;;19.60;99.90;;;;;;4974689;28;20178;-84
2021/07/04 09:20:13;;;;;;;18.38;11.55;;;19.70;99.90;;;;;;4974974;28;20638;-84
2021/07/04 09:22:50;;;;;;;19.55;12.98;;;19.80;99.90;;;;;;4974050;28;20170;-85
2021/07/04 09:25:46;;;;;;;21.35;13.55;;;19.80;99.90;;;;;;4975131;28;20237;-85
2021/07/04 09:28:16;;;;;;;22.08;13.70;;;19.80;99.90;;;;;;4970403;28;20195;-86
2021/07/04 09:30:44;;;;;;;22.40;14.70;;;19.80;99.90;;;;;;4974664;28;20186;-86
2021/07/04 09:33:12;;;;;;;18.90;13.40;;;19.80;99.90;;;;;;4974895;28;20171;-87
2021/07/04 09:35:38;;;;;;;17.58;13.10;;;19.90;99.90;;;;;;4974785;28;20206;-84
2021/07/04 09:38:15;;;;;;;22.20;16.05;;;19.90;99.90;;;;;;4977305;28;20646;-85
2021/07/04 09:40:41;;;;;;;21.45;13.60;;;19.90;99.90;;;;;;4974855;28;20326;-85
2021/07/04 09:43:14;;;;;;;18.42;13.95;;;20.00;99.90;;;;;;4975457;28;20205;-85
2021/07/04 09:45:47;;;;;;;25.08;14.32;;;20.00;99.90;;;;;;4973768;28;20546;-85
2021/07/04 09:48:35;;;;;;;21.10;15.40;;;20.10;99.90;;;;;;4975247;28;20174;-87
2021/07/04 09:51:25;;;;;;;16.20;12.73;;;20.20;99.90;;;;;;4975149;28;20264;-87
2021/07/04 09:53:57;;;;;;;17.17;12.85;;;20.30;99.90;;;;;;4975279;28;20640;-87
2021/07/04 09:56:35;;;;;;;17.90;13.88;;;20.30;99.90;;;;;;4975406;28;20213;-88
2021/07/04 09:59:03;;;;;;;19.45;13.40;;;20.40;99.90;;;;;;4976461;28;20190;-89
2021/07/04 10:01:30;;;;;;;21.33;12.90;;;20.40;99.90;;;;;;4974960;28;20183;-87
2021/07/04 10:03:56;;;;;;;15.32;12.63;;;20.40;99.90;;;;;;4976960;28;20210;-87
2021/07/04 10:06:21;;;;;;;17.00;12.98;;;20.30;99.90;;;;;;4975450;28;20191;-87
2021/07/04 10:08:48;;;;;;;17.83;13.18;;;;;;;;;;4974651;28;20591;-88
2021/07/04 10:11:15;;;;;;;18.27;12.98;;;20.40;99.90;;;;;;4975631;28;20178;-88
2021/07/04 10:13:46;;;;;;;19.67;13.05;;;20.40;99.90;;;;;;4975787;28;20179;-87
2021/07/04 10:16:14;;;;;;;23.05;14.02;;;20.30;99.90;;;;;;4975761;28;20653;-88
2021/07/04 10:18:42;;;;;;;19.80;14.13;;;20.20;99.90;;;;;;4975825;28;20186;-88
2021/07/04 10:21:08;;;;;;;19.20;14.73;;;20.20;99.90;;;;;;4976438;28;20170;-88
2021/07/04 10:23:34;;;;;;;23.15;15.48;;;20.10;99.90;;;;;;4979036;28;20182;-87
2021/07/04 10:26:00;;;;;;;20.42;15.63;;;20.10;99.90;;;;;;4979766;28;20182;-89
2021/07/04 10:28:35;;;;;;;21.35;15.77;;;20.10;99.90;;;;;;4985568;28;20186;-86
2021/07/04 10:31:07;;;;;;;21.48;16.42;;;20.00;99.90;;;;;;4987548;28;20170;-88
2021/07/04 10:33:33;;;;;;;25.40;15.80;;;20.00;99.90;;;;;;4987136;28;20174;-87
2021/07/04 10:36:15;;;;;;;25.70;17.45;;;20.10;99.90;;;;;;4979988;28;20230;-87
2021/07/04 10:38:45;;;;;;;26.30;16.20;;;20.10;99.90;;;;;;4982805;28;20201;-89
2021/07/04 10:41:24;;;;;;;22.77;14.27;;;20.00;99.90;;;;;;4982975;28;20174;-89
2021/07/04 10:43:57;;;;;;;23.17;15.65;;;20.00;99.90;;;;;;4981532;28;20178;-88
2021/07/04 10:46:45;;;;;;;22.48;15.38;;;20.00;99.90;;;;;;4980061;28;20197;-88
2021/07/04 10:49:15;;;;;;;24.10;16.45;;;20.00;99.90;;;;;;4981936;28;20275;-89
2021/07/04 10:51:54;;;;;;;27.48;17.17;;;20.00;99.90;;;;;;4979999;28;20612;-89
2021/07/04 10:54:41;;;;;;;28.80;18.80;;;20.00;99.90;;;;;;4980880;28;20174;-88
2021/07/04 10:57:33;;;;;;;26.25;17.92;;;19.90;99.90;;;;;;4981008;28;20599;-87
2021/07/04 10:59:59;;;;;;;28.20;18.90;;;20.00;99.90;;;;;;4979712;28;20181;-87
2021/07/04 11:02:46;;;;;;;29.58;20.40;;;19.90;99.90;;;;;;4980568;28;20206;-87
2021/07/04 11:05:30;;;;;;;27.65;19.50;;;19.80;99.90;;;;;;4982911;28;20194;-87
2021/07/04 11:07:56;;;;;;;30.33;19.67;;;19.80;99.90;;;;;;4980914;28;20197;-86
2021/07/04 11:10:23;;;;;;;26.10;19.55;;;19.80;99.90;;;;;;4980316;28;20182;-89
2021/07/04 11:12:51;;;;;;;33.20;20.20;;;19.70;99.90;;;;;;4979514;28;20209;-88
2021/07/04 11:15:20;;;;;;;27.42;19.60;;;19.70;99.90;;;;;;4978372;28;20667;-88
2021/07/04 11:17:58;;;;;;;30.13;20.30;;;19.70;99.90;;;;;;4977842;28;20212;-89
2021/07/04 11:20:28;;;;;;;33.17;20.13;;;19.70;99.90;;;;;;4977541;28;20167;-88
2021/07/04 11:23:05;;;;;;;31.83;19.52;;;19.80;99.90;;;;;;4975930;28;20178;-90
2021/07/04 11:25:40;;;;;;;29.10;19.90;;;19.90;99.90;;;;;;4976429;28;20190;-93
2021/07/04 11:28:15;;;;;;;28.05;19.63;;;20.00;99.90;;;;;;4976074;28;20178;-88
2021/07/04 11:30:44;;;;;;;33.28;20.15;;;20.20;99.90;;;;;;4977422;28;20170;-88
2021/07/04 11:33:24;;;;;;;30.48;18.90;;;20.30;99.90;;;;;;4977054;28;20183;-87
2021/07/04 11:35:50;;;;;;;29.40;18.80;;;20.40;99.90;;;;;;4976492;28;20195;-88
2021/07/04 11:38:18;;;;;;;28.25;19.83;;;20.40;99.90;;;;;;4960019;28;20183;-89
2021/07/04 11:40:44;;;;;;;27.30;18.75;;;20.50;99.90;;;;;;4976150;28;20209;-93
2021/07/04 11:43:12;;;;;;;32.75;19.05;;;20.60;99.90;;;;;;4977303;28;20217;-94
2021/07/04 11:45:37;;;;;;;27.63;19.60;;;20.70;99.90;;;;;;4979763;28;20183;-95
2021/07/04 11:48:03;;;;;;;28.35;19.85;;;20.80;99.90;;;;;;4978130;28;20274;-94
2021/07/04 11:50:31;;;;;;;28.00;19.08;;;20.80;99.90;;;;;;4978390;28;20266;-92
2021/07/04 11:53:06;;;;;;;26.80;19.90;;;20.80;99.90;;;;;;4976013;28;20189;-93
2021/07/04 11:55:32;;;;;;;26.13;19.08;;;20.90;99.90;;;;;;4980369;28;20217;-91
2021/07/04 11:57:58;;;;;;;27.83;19.80;;;20.90;99.90;;;;;;4976389;28;20186;-91
2021/07/04 12:00:31;;;;;;;29.40;20.92;;;20.90;99.90;;;;;;4977053;28;20237;-96
2021/07/04 12:02:58;;;;;;;29.60;21.08;;;20.90;99.90;;;;;;4975761;28;20178;-91
2021/07/04 12:05:24;;;;;;;29.88;21.48;;;21.00;99.90;;;;;;4959953;28;20190;-89
2021/07/04 12:07:55;;;;;;;31.25;22.27;;;20.90;99.90;;;;;;4976301;28;20182;-93
2021/07/04 12:10:20;;;;;;;30.05;21.80;;;20.90;99.90;;;;;;4959841;28;20196;-90
2021/07/04 12:12:51;;;;;;;31.58;21.50;;;20.80;99.90;;;;;;4975612;28;20257;-92
2021/07/04 12:15:17;;;;;;;37.10;21.10;;;20.90;99.90;;;;;;4960988;28;20214;-92
2021/07/04 12:17:45;;;;;;;28.23;21.15;;;20.90;99.90;;;;;;4960211;28;20699;-88
2021/07/04 12:20:22;;;;;;;29.73;21.33;;;20.90;99.90;;;;;;4977800;28;20179;-91
2021/07/04 12:22:55;;;;;;;27.33;20.40;;;20.90;99.90;;;;;;4978000;28;20590;-92
2021/07/04 12:25:27;;;;;;;30.48;20.48;;;20.90;99.90;;;;;;4975953;28;20209;-92
2021/07/04 12:28:07;;;;;;;27.98;20.00;;;20.90;99.90;;;;;;4976919;28;20233;-92
2021/07/04 12:30:35;;;;;;;27.13;19.27;;;19.90;99.90;;;;;;4977675;28;20171;-92
2021/07/04 12:33:08;;;;;;;27.13;21.55;;;20.80;99.90;;;;;;4976934;28;20202;-92
2021/07/04 12:35:34;;;;;;;28.83;20.90;;;20.90;99.90;;;;;;4979006;28;20198;-91